Time;durP1;ratioP1;P1;durP2;ratioP2;P2;SDS_P1;SDS_P2;PMS_P1;PMS_P2;Temp;Humidity;BMP_temperature;BMP_pressure;BME280_temperature;BME280_humidity;BME280_pressure;Samples;Min_cycle;Max_cycle;Signal;HPM_P1;HPM_P2
2020/12/18 00:00:25;;;;;;;27.23;15.97;;;;;;;4.64;100.00;101599.00;5004043;28;20037;-75
2020/12/18 00:02:51;;;;;;;29.07;16.37;;;;;;;4.62;100.00;101601.56;5020824;28;20049;-75
2020/12/18 00:05:17;;;;;;;28.03;16.03;;;;;;;4.57;100.00;101600.59;5025839;28;20064;-75
2020/12/18 00:07:43;;;;;;;25.43;15.83;;;;;;;4.46;100.00;101603.03;5024891;28;20095;-74
2020/12/18 00:10:09;;;;;;;25.37;15.87;;;;;;;4.37;100.00;101594.09;5026377;28;20572;-73
2020/12/18 00:12:35;;;;;;;26.07;15.40;;;;;;;4.30;100.00;101598.34;5025548;28;20069;-73
2020/12/18 00:15:01;;;;;;;29.20;17.70;;;;;;;4.26;100.00;101603.47;5025344;28;20065;-77
2020/12/18 00:17:27;;;;;;;24.87;14.37;;;;;;;4.15;100.00;101600.63;5022920;28;20112;-75
2020/12/18 00:19:53;;;;;;;27.97;15.67;;;;;;;4.08;100.00;101611.81;5005155;28;20449;-73
2020/12/18 00:22:20;;;;;;;26.03;14.80;;;;;;;3.95;100.00;101602.81;5026191;28;20061;-74
2020/12/18 00:24:46;;;;;;;23.90;15.27;;;;;;;3.84;100.00;101596.47;5026967;28;20046;-75
2020/12/18 00:27:12;;;;;;;25.27;14.13;;;;;;;3.76;100.00;101606.75;5025405;28;20636;-73
2020/12/18 00:29:38;;;;;;;26.33;16.23;;;;;;;3.71;100.00;101611.03;5024260;28;20622;-72
2020/12/18 00:32:05;;;;;;;25.90;15.00;;;;;;;3.68;100.00;101613.53;5026045;28;20064;-75
2020/12/18 00:34:31;;;;;;;32.53;16.07;;;;;;;3.66;100.00;101612.63;5006426;28;20045;-76
2020/12/18 00:36:57;;;;;;;26.37;14.97;;;;;;;3.58;100.00;101615.06;5024768;28;20100;-72
2020/12/18 00:39:23;;;;;;;26.60;15.27;;;;;;;3.56;100.00;101613.28;5008166;28;20096;-72
2020/12/18 00:41:53;;;;;;;27.73;15.77;;;;;;;3.55;100.00;101615.00;5026004;28;20083;-75
2020/12/18 00:44:20;;;;;;;29.87;17.27;;;;;;;3.60;100.00;101613.38;5027606;28;20042;-74
2020/12/18 00:46:46;;;;;;;36.67;17.73;;;;;;;3.62;100.00;101616.91;5009726;28;20120;-73
2020/12/18 00:49:13;;;;;;;32.67;17.97;;;;;;;3.61;100.00;101606.41;5012202;28;20087;-72
2020/12/18 00:51:39;;;;;;;31.37;16.57;;;;;;;3.61;100.00;101616.84;5008224;28;20065;-75
2020/12/18 00:54:05;;;;;;;31.87;16.80;;;;;;;3.62;100.00;101614.31;5016089;28;20038;-75
2020/12/18 00:56:32;;;;;;;30.43;16.63;;;;;;;3.58;100.00;101615.06;5027192;28;20112;-74
2020/12/18 00:58:58;;;;;;;37.43;18.67;;;;;;;3.58;100.00;101619.41;5032332;28;20057;-75
2020/12/18 01:01:24;;;;;;;29.43;17.77;;;;;;;3.53;100.00;101623.63;5023732;28;20053;-77
2020/12/18 01:03:50;;;;;;;36.67;18.63;;;;;;;3.54;100.00;101622.81;5029392;28;20041;-74
2020/12/18 01:06:16;;;;;;;38.77;18.77;;;;;;;3.52;100.00;101624.47;5026548;28;20591;-74
2020/12/18 01:08:42;;;;;;;42.37;19.53;;;;;;;3.54;100.00;101625.44;5008720;28;20130;-72
2020/12/18 01:11:08;;;;;;;36.87;18.20;;;;;;;3.52;100.00;101617.53;5027894;28;20037;-72
2020/12/18 01:13:35;;;;;;;32.27;17.43;;;;;;;3.47;100.00;101628.75;5027362;28;20168;-73
2020/12/18 01:16:01;;;;;;;32.50;17.90;;;;;;;3.45;100.00;101627.78;5028184;28;21065;-72
2020/12/18 01:18:27;;;;;;;27.93;16.17;;;;;;;3.37;100.00;101632.84;5007197;28;20041;-72
2020/12/18 01:20:54;;;;;;;28.97;16.40;;;;;;;3.35;100.00;101632.78;5026789;28;20486;-72
2020/12/18 01:23:20;;;;;;;28.07;15.83;;;;;;;3.37;100.00;101640.69;5027391;28;20095;-72
2020/12/18 01:25:49;;;;;;;37.60;18.47;;;;;;;3.39;100.00;101633.78;5026366;28;20091;-72
2020/12/18 01:28:15;;;;;;;35.23;19.03;;;;;;;3.43;100.00;101632.09;5005000;28;20038;-72
2020/12/18 01:30:41;;;;;;;34.80;18.27;;;;;;;3.44;100.00;101634.75;5021330;28;20123;-72
2020/12/18 01:33:07;;;;;;;41.37;20.30;;;;;;;3.48;100.00;101636.59;5027019;28;20506;-72
2020/12/18 01:35:33;;;;;;;38.70;20.43;;;;;;;3.49;100.00;101632.25;5023874;28;20029;-72
2020/12/18 01:37:59;;;;;;;37.77;20.30;;;;;;;3.49;100.00;101640.97;5026325;28;20571;-72
2020/12/18 01:40:25;;;;;;;38.27;19.80;;;;;;;3.44;100.00;101637.34;5025302;28;20095;-72
2020/12/18 01:42:52;;;;;;;33.57;18.03;;;;;;;3.37;100.00;101640.69;5027834;28;20115;-72
2020/12/18 01:45:18;;;;;;;32.50;17.53;;;;;;;3.24;100.00;101643.84;5006974;28;20095;-72
2020/12/18 01:47:45;;;;;;;30.73;17.17;;;;;;;3.22;100.00;101642.91;5024131;28;20049;-71
2020/12/18 01:50:11;;;;;;;26.70;15.97;;;;;;;3.11;100.00;101650.47;5026539;28;20186;-72
2020/12/18 01:52:37;;;;;;;34.27;19.10;;;;;;;3.10;100.00;101649.56;5006516;28;20061;-72
2020/12/18 01:55:05;;;;;;;30.20;16.07;;;;;;;3.04;100.00;101648.56;5022802;28;20174;-72
2020/12/18 01:57:32;;;;;;;28.67;15.57;;;;;;;2.98;100.00;101649.28;5025761;28;20034;-72
2020/12/18 02:00:09;;;;;;;30.07;15.63;;;;;;;2.93;100.00;101653.47;4989571;28;20049;-72
2020/12/18 02:02:35;;;;;;;31.83;16.43;;;;;;;2.90;100.00;101660.34;5007076;28;20091;-72
2020/12/18 02:05:01;;;;;;;51.17;24.83;;;;;;;2.95;100.00;101659.66;5009030;28;20103;-72
2020/12/18 02:07:28;;;;;;;34.83;17.63;;;;;;;2.91;100.00;101663.00;5005103;28;20143;-72
2020/12/18 02:09:56;;;;;;;40.70;17.37;;;;;;;2.88;100.00;101662.03;5006487;28;20041;-72
2020/12/18 02:12:25;;;;;;;31.20;16.17;;;;;;;2.80;100.00;101667.06;5022066;28;20044;-72
2020/12/18 02:14:52;;;;;;;29.83;15.50;;;;;;;2.69;100.00;101664.16;5007159;28;20103;-72
2020/12/18 02:17:19;;;;;;;28.67;15.40;;;;;;;2.62;100.00;101664.84;5006873;28;20065;-72
2020/12/18 02:19:53;;;;;;;24.03;13.97;;;;;;;2.58;100.00;101664.69;5021831;28;20049;-72
2020/12/18 02:22:22;;;;;;;28.33;16.13;;;;;;;2.57;100.00;101669.03;4990293;28;20042;-72
2020/12/18 02:25:00;;;;;;;31.33;17.90;;;;;;;2.57;100.00;101669.03;5025394;28;20087;-71
2020/12/18 02:27:27;;;;;;;33.90;16.27;;;;;;;2.53;100.00;101662.84;5005490;28;20095;-72
2020/12/18 02:29:53;;;;;;;33.13;16.97;;;;;;;2.56;100.00;101662.03;5020988;28;20486;-72
2020/12/18 02:32:21;;;;;;;40.97;17.87;;;;;;;2.55;100.00;101668.09;5006364;28;20061;-72
2020/12/18 02:34:47;;;;;;;42.07;19.67;;;;;;;2.57;100.00;101665.53;5024056;28;20053;-72
2020/12/18 02:37:13;;;;;;;37.33;18.23;;;;;;;2.55;100.00;101670.72;5027174;28;20535;-72
2020/12/18 02:39:40;;;;;;;42.17;19.83;;;;;;;2.57;100.00;101673.34;5025384;28;20144;-72
2020/12/18 02:42:06;;;;;;;41.53;19.07;;;;;;;2.60;100.00;101669.09;5024314;28;20037;-72
2020/12/18 02:44:32;;;;;;;41.77;20.33;;;;;;;2.66;100.00;101674.50;5022797;28;20503;-72
2020/12/18 02:46:59;;;;;;;47.63;20.93;;;;;;;2.72;100.00;101677.28;5007623;28;20072;-72
2020/12/18 02:49:25;;;;;;;47.07;21.00;;;;;;;2.77;100.00;101677.38;5025249;28;20517;-72
2020/12/18 02:51:51;;;;;;;37.93;18.53;;;;;;;2.70;100.00;101670.25;5019961;28;20415;-72
2020/12/18 02:54:17;;;;;;;35.10;17.77;;;;;;;2.60;100.00;101679.53;5006947;28;20077;-72
2020/12/18 02:56:44;;;;;;;40.73;18.70;;;;;;;2.48;100.00;101674.88;5022994;28;20045;-72
2020/12/18 02:59:10;;;;;;;31.17;15.80;;;;;;;2.36;100.00;101671.91;5024932;28;20128;-72
2020/12/18 03:01:36;;;;;;;27.53;15.23;;;;;;;2.29;100.00;101676.91;5021674;28;20079;-72
2020/12/18 03:04:03;;;;;;;34.97;17.13;;;;;;;2.26;100.00;101677.69;5007347;28;20648;-72
2020/12/18 03:06:29;;;;;;;34.73;16.60;;;;;;;2.23;100.00;101669.78;5005117;28;20033;-72
2020/12/18 03:08:55;;;;;;;36.07;17.13;;;;;;;2.23;100.00;101672.38;4988299;28;20069;-72
2020/12/18 03:11:21;;;;;;;44.23;19.63;;;;;;;2.28;100.00;101673.41;5023543;28;20033;-72
2020/12/18 03:13:49;;;;;;;42.43;20.60;;;;;;;2.33;100.00;101670.94;5026217;28;20045;-72
2020/12/18 03:16:15;;;;;;;48.87;23.50;;;;;;;2.35;100.00;101677.06;5022868;28;20621;-72
2020/12/18 03:18:42;;;;;;;37.00;17.17;;;;;;;2.22;100.00;101675.84;5008018;28;20045;-72
2020/12/18 03:21:08;;;;;;;30.03;15.20;;;;;;;2.10;100.00;101681.56;5017785;28;20041;-72
2020/12/18 03:23:34;;;;;;;26.95;14.45;;;;;;;2.01;100.00;101686.47;5096779;23;20095;-73
2020/12/18 03:26:00;;;;;;;26.57;14.80;;;;;;;1.96;100.00;101680.25;5005989;28;20800;-73
2020/12/18 03:28:26;;;;;;;32.73;15.57;;;;;;;1.93;100.00;101674.94;5025418;28;20403;-73
2020/12/18 03:30:53;;;;;;;33.63;17.50;;;;;;;1.90;100.00;101678.34;5032122;28;20095;-73
2020/12/18 03:33:19;;;;;;;34.43;16.47;;;;;;;1.90;100.00;101680.94;5029174;28;20087;-73
2020/12/18 03:35:45;;;;;;;38.77;18.50;;;;;;;1.93;100.00;101672.31;5015780;28;20056;-73
2020/12/18 03:38:11;;;;;;;39.27;18.27;;;;;;;1.99;100.00;101685.56;5009509;28;20045;-73
2020/12/18 03:40:37;;;;;;;40.23;19.40;;;;;;;2.03;100.00;101682.22;5041990;28;20078;-72
2020/12/18 03:43:03;;;;;;;42.27;19.57;;;;;;;2.05;100.00;101688.38;5024058;28;20040;-76
2020/12/18 03:45:30;;;;;;;47.33;20.83;;;;;;;2.11;100.00;101690.28;5044471;28;20033;-74
2020/12/18 03:47:56;;;;;;;43.53;20.53;;;;;;;2.08;100.00;101691.03;5015869;28;20045;-73
2020/12/18 03:50:22;;;;;;;44.93;19.40;;;;;;;2.07;100.00;101691.00;5027311;28;20044;-73
2020/12/18 03:53:01;;;;;;;41.47;19.97;;;;;;;2.09;100.00;101690.22;5030868;28;20048;-75
2020/12/18 03:55:27;;;;;;;38.77;18.90;;;;;;;2.08;100.00;101692.78;5030447;28;20124;-74
2020/12/18 03:57:53;;;;;;;36.47;19.13;;;;;;;2.04;100.00;101686.59;5045053;28;20083;-74
2020/12/18 04:00:19;;;;;;;36.40;15.77;;;;;;;1.99;100.00;101688.16;5026744;28;22022;-73
2020/12/18 04:02:46;;;;;;;27.60;15.30;;;;;;;1.92;100.00;101681.00;5028441;28;20395;-72
2020/12/18 04:05:12;;;;;;;32.97;15.03;;;;;;;1.87;100.00;101699.09;5027233;28;20064;-74
2020/12/18 04:07:38;;;;;;;37.27;17.77;;;;;;;1.89;100.00;101697.41;5027510;28;20111;-73
2020/12/18 04:10:04;;;;;;;39.07;17.73;;;;;;;1.92;100.00;101697.50;5032312;28;20032;-74
2020/12/18 04:12:30;;;;;;;51.67;20.90;;;;;;;2.00;100.00;101702.97;5043633;28;21925;-74
2020/12/18 04:14:56;;;;;;;46.70;22.37;;;;;;;2.07;100.00;101707.53;5029509;28;20049;-73
2020/12/18 04:17:23;;;;;;;48.43;22.10;;;;;;;2.10;100.00;101699.81;5034665;28;20131;-73
2020/12/18 04:19:49;;;;;;;45.83;20.60;;;;;;;2.14;100.00;101706.00;5048416;28;20040;-74
2020/12/18 04:22:15;;;;;;;47.23;21.37;;;;;;;2.20;100.00;101703.59;5046100;28;20038;-73
2020/12/18 04:24:41;;;;;;;47.83;22.53;;;;;;;2.26;100.00;101704.63;5046550;28;20120;-73
2020/12/18 04:27:08;;;;;;;47.63;23.03;;;;;;;2.36;100.00;101704.94;5047391;28;20074;-73
2020/12/18 04:29:35;;;;;;;53.73;26.17;;;;;;;2.39;100.00;101702.41;5045280;28;20040;-73
2020/12/18 04:32:01;;;;;;;54.03;24.50;;;;;;;2.38;100.00;101698.03;5041876;28;20511;-74
2020/12/18 04:34:27;;;;;;;46.17;22.40;;;;;;;2.35;100.00;101703.13;5035223;28;20041;-72
2020/12/18 04:36:53;;;;;;;50.07;22.73;;;;;;;2.34;100.00;101701.38;5014201;28;20045;-74
2020/12/18 04:39:19;;;;;;;45.03;21.37;;;;;;;2.35;100.00;101708.34;5028984;28;20713;-73
2020/12/18 04:41:45;;;;;;;48.87;21.20;;;;;;;2.36;100.00;101707.53;5047510;28;20087;-74
2020/12/18 04:44:11;;;;;;;55.53;22.73;;;;;;;2.37;100.00;101704.09;5031343;28;20086;-74
2020/12/18 04:46:38;;;;;;;38.07;18.80;;;;;;;2.33;100.00;101704.81;5026766;28;20554;-74
2020/12/18 04:49:04;;;;;;;32.10;16.70;;;;;;;2.29;100.00;101697.75;5001973;28;20064;-73
2020/12/18 04:51:30;;;;;;;36.60;16.57;;;;;;;2.27;100.00;101705.53;5026588;28;20578;-72
2020/12/18 04:53:56;;;;;;;41.73;20.80;;;;;;;2.29;100.00;101702.97;5047359;28;20041;-73
2020/12/18 04:56:25;;;;;;;34.90;17.30;;;;;;;2.20;100.00;101714.91;5048237;28;20076;-74
2020/12/18 04:58:53;;;;;;;33.83;16.07;;;;;;;2.14;100.00;101714.69;5030300;28;20098;-74
2020/12/18 05:01:21;;;;;;;31.30;14.70;;;;;;;2.05;100.00;101705.72;5030891;28;20505;-74
2020/12/18 05:03:47;;;;;;;26.80;13.47;;;;;;;1.93;100.00;101706.22;5031389;28;20118;-73
2020/12/18 05:06:14;;;;;;;25.40;13.20;;;;;;;1.81;100.00;101708.44;5030521;28;20077;-74
2020/12/18 05:08:43;;;;;;;21.03;13.60;;;;;;;1.69;100.00;101709.81;5046438;28;20131;-73
2020/12/18 05:11:18;;;;;;;19.63;11.43;;;;;;;1.60;100.00;101712.13;5028721;28;20053;-72
2020/12/18 05:13:46;;;;;;;19.80;12.03;;;;;;;1.55;100.00;101711.09;5045937;28;20223;-72
2020/12/18 05:16:13;;;;;;;20.47;12.43;;;;;;;1.54;100.00;101722.34;5033350;28;20043;-73
2020/12/18 05:18:39;;;;;;;28.03;13.37;;;;;;;1.57;100.00;101716.34;5011585;28;20468;-73
2020/12/18 05:21:05;;;;;;;25.37;13.07;;;;;;;1.61;100.00;101726.03;5011411;28;20041;-74
2020/12/18 05:23:42;;;;;;;24.60;12.70;;;;;;;1.62;100.00;101725.22;5028963;28;20102;-75
2020/12/18 05:26:09;;;;;;;38.67;18.27;;;;;;;1.74;100.00;101735.13;5012113;28;20106;-74
2020/12/18 05:28:37;;;;;;;34.10;16.10;;;;;;;1.78;100.00;101732.69;5031319;28;20481;-73
2020/12/18 05:31:10;;;;;;;33.73;16.23;;;;;;;1.81;100.00;101734.50;5030543;28;20509;-73
2020/12/18 05:33:36;;;;;;;41.93;17.10;;;;;;;1.85;100.00;101728.53;5015619;28;20041;-74
2020/12/18 05:36:02;;;;;;;31.03;15.83;;;;;;;1.83;100.00;101740.63;5012755;28;20177;-74
2020/12/18 05:38:28;;;;;;;36.17;17.97;;;;;;;1.85;100.00;101738.94;5013061;28;20681;-73
2020/12/18 05:40:58;;;;;;;37.23;18.33;;;;;;;1.87;100.00;101735.59;5047471;28;20575;-73
2020/12/18 05:43:25;;;;;;;31.20;15.23;;;;;;;1.86;100.00;101744.25;5028888;28;20057;-74
2020/12/18 05:45:51;;;;;;;27.07;13.10;;;;;;;1.81;100.00;101740.59;5029809;28;20584;-73
2020/12/18 05:48:17;;;;;;;26.57;13.37;;;;;;;1.75;100.00;101745.59;5031040;28;20065;-73
2020/12/18 05:50:43;;;;;;;23.20;12.83;;;;;;;1.74;100.00;101745.56;5029153;28;20482;-73
2020/12/18 05:53:11;;;;;;;26.17;12.67;;;;;;;1.72;100.00;101744.63;5046926;28;20366;-74
2020/12/18 05:55:41;;;;;;;28.00;13.63;;;;;;;1.67;100.00;101744.44;5031033;28;20375;-73
2020/12/18 05:58:14;;;;;;;43.47;19.13;;;;;;;1.78;100.00;101750.03;5024539;28;20045;-74
2020/12/18 06:00:41;;;;;;;40.83;19.77;;;;;;;1.82;100.00;101746.69;5025434;28;20049;-73
2020/12/18 06:03:09;;;;;;;39.83;17.40;;;;;;;1.79;100.00;101744.88;5022545;28;20037;-72
2020/12/18 06:05:39;;;;;;;36.93;16.70;;;;;;;1.80;100.00;101743.16;5006038;28;20471;-74
2020/12/18 06:08:14;;;;;;;29.23;14.77;;;;;;;1.77;100.00;101743.06;5024161;28;20406;-73
2020/12/18 06:10:40;;;;;;;26.53;13.53;;;;;;;1.72;100.00;101744.63;5027302;28;20064;-74
2020/12/18 06:13:06;;;;;;;24.60;11.93;;;;;;;1.60;100.00;101746.00;5010546;28;20103;-74
2020/12/18 06:15:33;;;;;;;25.27;12.37;;;;;;;1.54;100.00;101740.56;5023331;28;20116;-73
2020/12/18 06:18:04;;;;;;;25.20;13.50;;;;;;;1.53;100.00;101743.13;5008672;28;20490;-73
2020/12/18 06:20:35;;;;;;;34.87;16.07;;;;;;;1.55;100.00;101742.34;5024394;28;20504;-73
2020/12/18 06:23:04;;;;;;;23.53;12.87;;;;;;;1.52;100.00;101742.25;5023030;28;20132;-74
2020/12/18 06:25:31;;;;;;;35.03;13.97;;;;;;;1.52;100.00;101750.06;5041523;28;20033;-73
2020/12/18 06:28:01;;;;;;;34.50;16.30;;;;;;;1.57;100.00;101751.09;5040766;28;20128;-73
2020/12/18 06:30:28;;;;;;;31.57;14.33;;;;;;;1.55;100.00;101746.66;5025016;28;20045;-73
2020/12/18 06:32:55;;;;;;;34.00;13.80;;;;;;;1.51;100.00;101748.25;5043137;28;20051;-73
2020/12/18 06:35:35;;;;;;;27.87;14.50;;;;;;;1.49;100.00;101752.53;5023897;28;20931;-73
2020/12/18 06:38:14;;;;;;;28.07;13.60;;;;;;;1.40;100.00;101757.44;5021770;28;20040;-72
2020/12/18 06:40:40;;;;;;;28.57;12.33;;;;;;;1.30;100.00;101752.75;5043757;28;20493;-71
2020/12/18 06:43:06;;;;;;;20.50;11.23;;;;;;;1.19;100.00;101752.41;5041116;28;20124;-72
2020/12/18 06:45:33;;;;;;;22.03;10.90;;;;;;;1.12;100.00;101751.28;5024216;28;20122;-73
2020/12/18 06:47:59;;;;;;;23.67;11.77;;;;;;;1.08;100.00;101752.00;5009871;28;20055;-72
2020/12/18 06:50:34;;;;;;;29.93;15.17;;;;;;;1.11;100.00;101752.13;5005345;28;20045;-71
2020/12/18 06:53:04;;;;;;;27.23;13.97;;;;;;;1.13;100.00;101752.16;5024565;28;20033;-72
2020/12/18 06:55:30;;;;;;;32.80;16.27;;;;;;;1.18;100.00;101753.22;5022280;28;20053;-72
2020/12/18 06:58:05;;;;;;;30.57;14.10;;;;;;;1.18;100.00;101757.53;5041007;28;20047;-72
2020/12/18 07:00:43;;;;;;;47.23;19.23;;;;;;;1.21;100.00;101755.03;5037620;28;20181;-72
2020/12/18 07:03:10;;;;;;;33.73;15.30;;;;;;;1.18;100.00;101754.91;5024519;28;20056;-72
2020/12/18 07:05:43;;;;;;;25.60;14.30;;;;;;;1.12;100.00;101766.00;5025536;28;20110;-72
2020/12/18 07:08:11;;;;;;;36.60;16.90;;;;;;;1.16;100.00;101767.00;5019578;28;20041;-72
2020/12/18 07:10:46;;;;;;;39.63;17.30;;;;;;;1.16;100.00;101760.06;5024745;28;20072;-72
2020/12/18 07:13:16;;;;;;;39.03;18.27;;;;;;;1.23;100.00;101754.25;5007840;28;20052;-72
2020/12/18 07:15:44;;;;;;;41.67;18.77;;;;;;;1.25;100.00;101760.41;5039245;28;20045;-71
2020/12/18 07:18:26;;;;;;;30.83;16.20;;;;;;;1.19;100.00;101761.91;5038803;28;20068;-71
2020/12/18 07:20:54;;;;;;;30.13;14.73;;;;;;;1.08;100.00;101761.53;5039869;28;20056;-72
2020/12/18 07:23:22;;;;;;;34.70;15.93;;;;;;;1.07;100.00;101772.75;5024413;28;20033;-72
2020/12/18 07:25:49;;;;;;;30.07;14.13;;;;;;;0.96;100.00;101767.19;5021081;28;20506;-74
2020/12/18 07:28:15;;;;;;;29.03;13.80;;;;;;;0.94;100.00;101765.38;5020953;28;20098;-72
2020/12/18 07:30:43;;;;;;;37.20;16.77;;;;;;;0.98;100.00;101770.72;5004995;28;20076;-72
2020/12/18 07:33:11;;;;;;;32.27;15.60;;;;;;;0.94;100.00;101775.78;5023504;28;20037;-72
2020/12/18 07:35:39;;;;;;;27.70;14.07;;;;;;;0.87;100.00;101766.84;5025547;28;20065;-72
2020/12/18 07:38:27;;;;;;;26.77;13.87;;;;;;;0.87;100.00;101782.47;5024587;28;20049;-72
2020/12/18 07:40:59;;;;;;;31.23;15.07;;;;;;;0.85;100.00;101781.53;5026159;28;20106;-71
2020/12/18 07:43:27;;;;;;;31.60;15.23;;;;;;;0.90;100.00;101777.34;5024375;28;20063;-71
2020/12/18 07:45:56;;;;;;;32.93;15.43;;;;;;;0.92;100.00;101780.88;5017748;28;20046;-72
2020/12/18 07:48:29;;;;;;;33.17;16.80;;;;;;;0.96;100.00;101767.19;5024844;28;20064;-72
2020/12/18 07:51:18;;;;;;;37.80;17.50;;;;;;;1.04;100.00;101759.66;5009329;28;20030;-73
2020/12/18 07:53:51;;;;;;;33.63;17.93;;;;;;;1.09;100.00;101774.63;5027528;28;20646;-72
2020/12/18 07:56:18;;;;;;;34.40;17.10;;;;;;;1.23;100.00;101782.00;5020060;28;20698;-72
2020/12/18 07:58:48;;;;;;;36.30;16.90;;;;;;;1.38;100.00;101779.94;5009736;28;20045;-72
2020/12/18 08:01:26;;;;;;;37.90;17.90;;;;;;;1.56;100.00;101788.38;5046123;28;20042;-71
2020/12/18 08:03:57;;;;;;;40.57;19.30;;;;;;;1.69;100.00;101782.78;5013410;28;20075;-72
2020/12/18 08:06:25;;;;;;;56.67;23.67;;;;;;;1.81;100.00;101797.03;5026227;28;20076;-72
2020/12/18 08:08:52;;;;;;;51.50;22.17;;;;;;;1.96;100.00;101792.31;5028286;28;20045;-71
2020/12/18 08:11:20;;;;;;;46.77;21.20;;;;;;;2.05;100.00;101789.13;5027899;28;20046;-72
2020/12/18 08:13:46;;;;;;;42.47;19.57;;;;;;;2.12;100.00;101796.31;5009338;28;20040;-71
2020/12/18 08:16:13;;;;;;;49.77;21.07;;;;;;;2.20;100.00;101789.63;5025482;28;20509;-71
2020/12/18 08:18:45;;;;;;;48.30;20.33;;;;;;;2.29;100.00;101787.31;5043626;28;20067;-71
2020/12/18 08:21:11;;;;;;;46.97;19.50;;;;;;;2.38;100.00;101798.03;5034078;28;20037;-72
2020/12/18 08:23:43;;;;;;;45.60;19.23;;;;;;;2.49;100.00;101793.13;5043856;28;20033;-72
2020/12/18 08:26:10;;;;;;;45.00;17.77;;;;;;;2.55;100.00;101798.53;5026568;28;20094;-72
2020/12/18 08:28:36;;;;;;;40.40;18.43;;;;;;;2.64;100.00;101809.25;5006491;28;20071;-71
2020/12/18 08:31:05;;;;;;;39.17;18.40;;;;;;;2.72;100.00;101804.25;5026859;28;20040;-72
2020/12/18 08:33:35;;;;;;;60.20;23.43;;;;;;;2.83;100.00;101801.09;5011446;28;20041;-73
2020/12/18 08:36:02;;;;;;;62.10;29.93;;;;;;;2.92;100.00;101799.59;5043039;28;20036;-72
2020/12/18 08:38:29;;;;;;;64.97;27.03;;;;;;;3.03;100.00;101795.59;5026985;28;20430;-72
2020/12/18 08:40:56;;;;;;;59.37;26.20;;;;;;;3.17;100.00;101791.63;5045115;28;20693;-73
2020/12/18 08:43:22;;;;;;;55.73;25.43;;;;;;;3.30;100.00;101787.63;5030637;28;20371;-71
2020/12/18 08:45:48;;;;;;;60.33;25.47;;;;;;;3.42;100.00;101789.69;5026373;28;20116;-72
2020/12/18 08:48:20;;;;;;;55.50;26.30;;;;;;;3.52;100.00;101792.56;5011667;28;20037;-72
2020/12/18 08:50:47;;;;;;;61.00;25.57;;;;;;;3.66;100.00;101790.34;4997682;28;20045;-73
2020/12/18 08:53:16;;;;;;;61.10;26.67;;;;;;;3.75;100.00;101787.94;5030820;28;20030;-73
2020/12/18 08:55:42;;;;;;;59.17;25.80;;;;;;;3.79;100.00;101787.19;5037974;28;20042;-73
2020/12/18 08:58:09;;;;;;;51.80;22.70;;;;;;;3.85;100.00;101789.94;5004362;28;20072;-73
2020/12/18 09:00:37;;;;;;;55.03;25.40;;;;;;;3.94;100.00;101797.13;5024029;28;20040;-73
2020/12/18 09:03:03;;;;;;;48.30;22.63;;;;;;;4.05;100.00;101789.56;5002393;28;20110;-72
2020/12/18 09:05:31;;;;;;;51.60;24.73;;;;;;;4.09;100.00;101794.00;5008280;28;20064;-72
2020/12/18 09:07:59;;;;;;;49.53;22.73;;;;;;;4.04;100.00;101783.47;5022431;28;20116;-71
2020/12/18 09:10:35;;;;;;;50.40;23.00;;;;;;;4.12;100.00;101783.59;5046668;28;20032;-72
2020/12/18 09:13:16;;;;;;;40.23;20.53;;;;;;;4.15;100.00;101796.78;5040911;28;20444;-72
2020/12/18 09:16:01;;;;;;;42.87;21.10;;;;;;;4.25;100.00;101785.69;5028971;28;20440;-73
2020/12/18 09:18:28;;;;;;;;;;;;;;;4.33;100.00;101789.34;5021456;28;20070;-73
2020/12/18 09:20:54;;;;;;;61.63;23.13;;;;;;;4.56;100.00;101800.34;5026579;28;19924;-72
2020/12/18 09:23:31;;;;;;;54.30;21.80;;;;;;;5.71;100.00;101789.53;5026238;28;20082;-73
2020/12/18 09:26:00;;;;;;;39.20;21.57;;;;;;;7.00;100.00;101773.13;5025123;28;20046;-72
2020/12/18 09:28:27;;;;;;;29.57;17.27;;;;;;;7.72;100.00;101779.09;5011880;28;20125;-71
2020/12/18 09:30:55;;;;;;;23.27;13.90;;;;;;;8.18;100.00;101776.88;5031623;28;20247;-73
2020/12/18 09:33:25;;;;;;;20.48;12.38;;;;;;;8.48;100.00;101777.97;5027809;28;20098;-72
2020/12/18 09:35:59;;;;;;;24.00;12.95;;;;;;;8.45;100.00;101779.72;5081515;23;20041;-90
2020/12/18 09:38:27;;;;;;;20.50;12.57;;;;;;;8.94;100.00;101785.25;5002739;23;20074;-68
2020/12/18 09:40:54;;;;;;;16.20;9.95;;;;;;;9.10;100.00;101777.41;4992610;28;20061;-68
2020/12/18 09:43:21;;;;;;;13.95;9.57;;;;;;;8.71;100.00;101781.59;4977343;28;20140;-69
2020/12/18 09:45:47;;;;;;;14.60;8.88;;;;;;;8.98;100.00;101781.72;4996280;28;20181;-69
2020/12/18 09:48:14;;;;;;;12.77;8.50;;;;;;;9.09;100.00;101779.16;4996302;28;20141;-70
2020/12/18 09:50:40;;;;;;;13.48;9.68;;;;;;;9.13;100.00;101785.31;4997135;28;20042;-70
2020/12/18 09:53:06;;;;;;;12.38;8.77;;;;;;;9.30;100.00;101786.22;4999922;28;20062;-70
2020/12/18 09:55:33;;;;;;;11.98;9.18;;;;;;;8.51;97.41;101789.41;4996693;28;20511;-71
2020/12/18 09:58:01;;;;;;;14.48;9.30;;;;;;;7.86;98.91;101790.66;5000544;28;20041;-67
2020/12/18 10:00:28;;;;;;;13.15;9.98;;;;;;;7.31;100.00;101789.22;4990653;28;20095;-70
2020/12/18 10:02:55;;;;;;;16.15;10.90;;;;;;;6.83;100.00;101794.78;4997638;28;20045;-70
2020/12/18 10:05:21;;;;;;;16.27;10.52;;;;;;;6.49;100.00;101789.06;4990326;28;20041;-71
2020/12/18 10:07:47;;;;;;;15.25;9.88;;;;;;;6.36;100.00;101787.13;5000862;28;20057;-72
2020/12/18 10:10:13;;;;;;;15.77;10.52;;;;;;;6.17;100.00;101785.97;4996985;28;20076;-72
2020/12/18 10:12:39;;;;;;;14.98;9.48;;;;;;;6.03;100.00;101783.09;4993750;28;20886;-72
2020/12/18 10:15:06;;;;;;;15.60;10.00;;;;;;;5.93;100.00;101787.34;4992376;28;20203;-72
2020/12/18 10:17:32;;;;;;;17.97;11.00;;;;;;;5.89;100.00;101782.88;4994464;28;20034;-71
2020/12/18 10:19:58;;;;;;;15.53;10.10;;;;;;;5.92;100.00;101795.19;4981435;28;20033;-72
2020/12/18 10:22:24;;;;;;;14.80;10.07;;;;;;;5.91;100.00;101789.06;4993654;28;20042;-72
2020/12/18 10:24:51;;;;;;;16.47;10.03;;;;;;;5.91;100.00;101788.16;4986870;28;20070;-72
2020/12/18 10:27:19;;;;;;;13.73;10.07;;;;;;;5.93;100.00;101786.44;4994076;28;20041;-71
2020/12/18 10:29:45;;;;;;;17.07;10.57;;;;;;;5.98;100.00;101779.56;5001403;28;20104;-72
2020/12/18 10:32:11;;;;;;;15.70;10.33;;;;;;;6.56;100.00;101777.81;5001589;28;20121;-70
2020/12/18 10:34:37;;;;;;;13.27;8.80;;;;;;;7.80;98.29;101782.69;5000287;28;20049;-69
2020/12/18 10:37:03;;;;;;;13.25;9.73;;;;;;;8.89;87.71;101776.41;4987156;28;20104;-71
2020/12/18 10:39:29;;;;;;;12.68;8.57;;;;;;;10.07;83.36;101772.22;4998246;28;20399;-72
2020/12/18 10:41:55;;;;;;;12.77;8.55;;;;;;;11.00;76.72;101760.56;4997643;28;20475;-71
2020/12/18 10:44:22;;;;;;;11.02;8.38;;;;;;;12.09;74.63;101755.44;4994179;28;20197;-72
2020/12/18 10:46:48;;;;;;;9.68;7.38;;;;;;;12.99;69.87;101762.41;4994409;28;20042;-71
2020/12/18 10:49:17;;;;;;;9.38;7.40;;;;;;;13.73;66.59;101762.28;5001437;28;20574;-72
2020/12/18 10:51:44;;;;;;;9.05;6.90;;;;;;;14.41;64.15;101759.31;4992141;28;20107;-67
2020/12/18 10:54:10;;;;;;;12.43;7.97;;;;;;;14.83;60.58;101760.28;5000303;28;20034;-69
2020/12/18 10:56:44;;;;;;;9.82;7.70;;;;;;;14.83;60.54;101762.94;4980848;28;20045;-68
2020/12/18 10:59:10;;;;;;;12.13;7.72;;;;;;;15.04;60.18;101767.81;4999330;28;20042;-68
2020/12/18 11:01:38;;;;;;;11.73;7.68;;;;;;;15.25;59.22;101762.94;4999077;28;20042;-68
2020/12/18 11:04:04;;;;;;;8.15;7.10;;;;;;;15.11;57.40;101764.09;5007405;28;20053;-69
2020/12/18 11:06:30;;;;;;;8.25;7.20;;;;;;;15.70;56.50;101764.56;4991128;28;20127;-69
2020/12/18 11:08:57;;;;;;;10.75;7.57;;;;;;;15.58;54.27;101754.19;4990540;28;20104;-69
2020/12/18 11:11:24;;;;;;;9.95;7.30;;;;;;;15.45;54.38;101761.56;4999422;28;20045;-68
2020/12/18 11:13:50;;;;;;;9.15;7.15;;;;;;;15.09;56.60;101757.94;5003195;28;20097;-70